sensor_id;sensor_type;location;lat;lon;timestamp;P1;durP1;ratioP1;P2;durP2;ratioP2
18146;SDS011;9199;48.832;9.182;2023-09-19T00:02:18;4.35;;;0.90;;
18146;SDS011;9199;48.832;9.182;2023-09-19T00:04:44;3.13;;;1.00;;
18146;SDS011;9199;48.832;9.182;2023-09-19T00:07:11;3.03;;;1.00;;
18146;SDS011;9199;48.832;9.182;2023-09-19T00:09:38;4.50;;;0.90;;
18146;SDS011;9199;48.832;9.182;2023-09-19T00:12:06;3.45;;;1.00;;
18146;SDS011;9199;48.832;9.182;2023-09-19T00:14:34;3.55;;;0.75;;
18146;SDS011;9199;48.832;9.182;2023-09-19T00:17:01;2.88;;;1.05;;
18146;SDS011;9199;48.832;9.182;2023-09-19T00:19:32;3.13;;;0.90;;
18146;SDS011;9199;48.832;9.182;2023-09-19T00:21:58;2.55;;;0.82;;
18146;SDS011;9199;48.832;9.182;2023-09-19T00:24:25;3.42;;;0.80;;
18146;SDS011;9199;48.832;9.182;2023-09-19T00:26:53;2.88;;;0.88;;
18146;SDS011;9199;48.832;9.182;2023-09-19T00:29:20;3.72;;;0.80;;
18146;SDS011;9199;48.832;9.182;2023-09-19T00:31:48;2.30;;;0.80;;
18146;SDS011;9199;48.832;9.182;2023-09-19T00:34:15;3.55;;;0.90;;
18146;SDS011;9199;48.832;9.182;2023-09-19T00:36:44;1.98;;;0.80;;
18146;SDS011;9199;48.832;9.182;2023-09-19T00:39:10;4.63;;;0.90;;
18146;SDS011;9199;48.832;9.182;2023-09-19T00:41:37;2.78;;;1.10;;
18146;SDS011;9199;48.832;9.182;2023-09-19T00:44:05;3.33;;;1.10;;
18146;SDS011;9199;48.832;9.182;2023-09-19T00:46:32;3.13;;;1.00;;
18146;SDS011;9199;48.832;9.182;2023-09-19T00:49:00;3.38;;;0.90;;
18146;SDS011;9199;48.832;9.182;2023-09-19T00:51:28;3.15;;;0.90;;
18146;SDS011;9199;48.832;9.182;2023-09-19T00:53:56;2.50;;;0.95;;
18146;SDS011;9199;48.832;9.182;2023-09-19T00:56:24;2.37;;;1.00;;
18146;SDS011;9199;48.832;9.182;2023-09-19T00:58:51;2.90;;;0.77;;
18146;SDS011;9199;48.832;9.182;2023-09-19T01:01:18;3.63;;;0.90;;
18146;SDS011;9199;48.832;9.182;2023-09-19T01:03:45;4.57;;;1.00;;
18146;SDS011;9199;48.832;9.182;2023-09-19T01:06:12;3.65;;;0.90;;
18146;SDS011;9199;48.832;9.182;2023-09-19T01:08:39;1.87;;;0.83;;
18146;SDS011;9199;48.832;9.182;2023-09-19T01:11:09;2.75;;;1.00;;
18146;SDS011;9199;48.832;9.182;2023-09-19T01:13:43;2.63;;;0.90;;
18146;SDS011;9199;48.832;9.182;2023-09-19T01:16:26;3.53;;;1.00;;
18146;SDS011;9199;48.832;9.182;2023-09-19T01:19:04;2.03;;;0.75;;
18146;SDS011;9199;48.832;9.182;2023-09-19T01:21:48;2.87;;;0.60;;
18146;SDS011;9199;48.832;9.182;2023-09-19T01:24:33;2.45;;;0.80;;
18146;SDS011;9199;48.832;9.182;2023-09-19T01:27:25;3.83;;;1.00;;
18146;SDS011;9199;48.832;9.182;2023-09-19T01:30:09;2.40;;;0.90;;
18146;SDS011;9199;48.832;9.182;2023-09-19T01:32:36;2.03;;;0.98;;
18146;SDS011;9199;48.832;9.182;2023-09-19T01:35:04;3.77;;;1.53;;
18146;SDS011;9199;48.832;9.182;2023-09-19T01:37:31;2.33;;;0.90;;
18146;SDS011;9199;48.832;9.182;2023-09-19T01:39:58;1.67;;;0.70;;
18146;SDS011;9199;48.832;9.182;2023-09-19T01:42:41;2.55;;;0.90;;
18146;SDS011;9199;48.832;9.182;2023-09-19T01:45:13;2.92;;;0.80;;
18146;SDS011;9199;48.832;9.182;2023-09-19T01:47:48;3.67;;;0.80;;
18146;SDS011;9199;48.832;9.182;2023-09-19T01:50:20;3.42;;;0.90;;
18146;SDS011;9199;48.832;9.182;2023-09-19T01:52:56;3.40;;;1.13;;
18146;SDS011;9199;48.832;9.182;2023-09-19T01:55:29;2.83;;;0.80;;
18146;SDS011;9199;48.832;9.182;2023-09-19T01:57:58;2.65;;;0.90;;
18146;SDS011;9199;48.832;9.182;2023-09-19T02:00:32;2.37;;;0.90;;
18146;SDS011;9199;48.832;9.182;2023-09-19T02:03:02;5.18;;;1.10;;
18146;SDS011;9199;48.832;9.182;2023-09-19T02:05:30;2.55;;;0.82;;
18146;SDS011;9199;48.832;9.182;2023-09-19T02:07:58;3.28;;;0.90;;
18146;SDS011;9199;48.832;9.182;2023-09-19T02:10:25;2.55;;;0.80;;
18146;SDS011;9199;48.832;9.182;2023-09-19T02:12:52;2.57;;;0.80;;
18146;SDS011;9199;48.832;9.182;2023-09-19T02:15:19;3.65;;;0.98;;
18146;SDS011;9199;48.832;9.182;2023-09-19T02:17:48;2.15;;;0.95;;
18146;SDS011;9199;48.832;9.182;2023-09-19T02:20:15;2.45;;;0.90;;
18146;SDS011;9199;48.832;9.182;2023-09-19T02:22:42;2.15;;;0.95;;
18146;SDS011;9199;48.832;9.182;2023-09-19T02:25:09;4.40;;;0.90;;
18146;SDS011;9199;48.832;9.182;2023-09-19T02:27:36;2.83;;;0.90;;
18146;SDS011;9199;48.832;9.182;2023-09-19T02:30:03;5.45;;;0.90;;
18146;SDS011;9199;48.832;9.182;2023-09-19T02:32:31;3.72;;;0.85;;
18146;SDS011;9199;48.832;9.182;2023-09-19T02:35:03;2.35;;;0.93;;
18146;SDS011;9199;48.832;9.182;2023-09-19T02:37:30;2.83;;;0.90;;
18146;SDS011;9199;48.832;9.182;2023-09-19T02:39:57;2.17;;;0.75;;
18146;SDS011;9199;48.832;9.182;2023-09-19T02:42:24;3.45;;;0.93;;
18146;SDS011;9199;48.832;9.182;2023-09-19T02:44:51;2.15;;;0.93;;
18146;SDS011;9199;48.832;9.182;2023-09-19T02:47:18;3.80;;;0.70;;
18146;SDS011;9199;48.832;9.182;2023-09-19T02:49:45;2.20;;;0.90;;
18146;SDS011;9199;48.832;9.182;2023-09-19T02:52:13;2.05;;;0.73;;
18146;SDS011;9199;48.832;9.182;2023-09-19T02:54:40;3.13;;;0.90;;
18146;SDS011;9199;48.832;9.182;2023-09-19T02:57:10;1.90;;;0.70;;
18146;SDS011;9199;48.832;9.182;2023-09-19T02:59:39;2.25;;;0.90;;
18146;SDS011;9199;48.832;9.182;2023-09-19T03:02:06;2.67;;;0.90;;
18146;SDS011;9199;48.832;9.182;2023-09-19T03:04:33;2.17;;;0.90;;
18146;SDS011;9199;48.832;9.182;2023-09-19T03:07:00;1.83;;;0.73;;
18146;SDS011;9199;48.832;9.182;2023-09-19T03:09:30;2.33;;;0.90;;
18146;SDS011;9199;48.832;9.182;2023-09-19T03:11:57;3.05;;;0.80;;
18146;SDS011;9199;48.832;9.182;2023-09-19T03:14:24;3.00;;;0.70;;
18146;SDS011;9199;48.832;9.182;2023-09-19T03:16:55;2.92;;;1.02;;
18146;SDS011;9199;48.832;9.182;2023-09-19T03:19:21;4.22;;;1.10;;
18146;SDS011;9199;48.832;9.182;2023-09-19T03:21:48;2.88;;;0.95;;
18146;SDS011;9199;48.832;9.182;2023-09-19T03:24:15;3.33;;;0.85;;
18146;SDS011;9199;48.832;9.182;2023-09-19T03:26:43;3.97;;;0.93;;
18146;SDS011;9199;48.832;9.182;2023-09-19T03:29:11;2.97;;;0.88;;
18146;SDS011;9199;48.832;9.182;2023-09-19T03:31:39;2.67;;;0.90;;
18146;SDS011;9199;48.832;9.182;2023-09-19T03:34:05;3.47;;;0.90;;
18146;SDS011;9199;48.832;9.182;2023-09-19T03:36:32;2.70;;;0.80;;
18146;SDS011;9199;48.832;9.182;2023-09-19T03:38:59;3.13;;;0.73;;
18146;SDS011;9199;48.832;9.182;2023-09-19T03:41:26;3.75;;;1.10;;
18146;SDS011;9199;48.832;9.182;2023-09-19T03:43:54;2.55;;;1.00;;
18146;SDS011;9199;48.832;9.182;2023-09-19T03:46:21;3.38;;;1.05;;
18146;SDS011;9199;48.832;9.182;2023-09-19T03:48:47;2.13;;;0.80;;
18146;SDS011;9199;48.832;9.182;2023-09-19T03:51:15;3.43;;;1.00;;
18146;SDS011;9199;48.832;9.182;2023-09-19T03:53:42;3.65;;;1.00;;
18146;SDS011;9199;48.832;9.182;2023-09-19T03:56:08;2.00;;;0.90;;
18146;SDS011;9199;48.832;9.182;2023-09-19T03:58:35;2.90;;;0.90;;
18146;SDS011;9199;48.832;9.182;2023-09-19T04:01:06;3.10;;;1.05;;
18146;SDS011;9199;48.832;9.182;2023-09-19T04:03:33;3.77;;;1.00;;
18146;SDS011;9199;48.832;9.182;2023-09-19T04:06:11;3.15;;;1.10;;
18146;SDS011;9199;48.832;9.182;2023-09-19T04:08:38;2.75;;;1.10;;
18146;SDS011;9199;48.832;9.182;2023-09-19T04:11:04;3.97;;;1.10;;
18146;SDS011;9199;48.832;9.182;2023-09-19T04:13:31;2.50;;;1.00;;
18146;SDS011;9199;48.832;9.182;2023-09-19T04:15:58;3.73;;;1.10;;
18146;SDS011;9199;48.832;9.182;2023-09-19T04:18:26;2.00;;;0.93;;
18146;SDS011;9199;48.832;9.182;2023-09-19T04:20:56;3.13;;;0.90;;
18146;SDS011;9199;48.832;9.182;2023-09-19T04:23:23;2.85;;;1.10;;
18146;SDS011;9199;48.832;9.182;2023-09-19T04:25:49;3.50;;;1.00;;
18146;SDS011;9199;48.832;9.182;2023-09-19T04:28:16;2.67;;;1.03;;
18146;SDS011;9199;48.832;9.182;2023-09-19T04:30:43;2.72;;;0.88;;
18146;SDS011;9199;48.832;9.182;2023-09-19T04:33:10;4.10;;;1.30;;
18146;SDS011;9199;48.832;9.182;2023-09-19T04:35:40;4.05;;;1.30;;
18146;SDS011;9199;48.832;9.182;2023-09-19T04:38:08;3.10;;;1.10;;
18146;SDS011;9199;48.832;9.182;2023-09-19T04:40:35;3.20;;;1.20;;
18146;SDS011;9199;48.832;9.182;2023-09-19T04:43:04;3.83;;;1.30;;
18146;SDS011;9199;48.832;9.182;2023-09-19T04:45:32;5.68;;;1.90;;
18146;SDS011;9199;48.832;9.182;2023-09-19T04:47:59;2.88;;;1.20;;
18146;SDS011;9199;48.832;9.182;2023-09-19T04:50:27;3.15;;;1.10;;
18146;SDS011;9199;48.832;9.182;2023-09-19T04:52:56;3.57;;;1.23;;
18146;SDS011;9199;48.832;9.182;2023-09-19T04:55:22;4.90;;;1.40;;
18146;SDS011;9199;48.832;9.182;2023-09-19T04:57:50;3.03;;;1.20;;
18146;SDS011;9199;48.832;9.182;2023-09-19T05:00:18;4.85;;;1.30;;
18146;SDS011;9199;48.832;9.182;2023-09-19T05:02:49;4.20;;;1.30;;
18146;SDS011;9199;48.832;9.182;2023-09-19T05:05:16;3.73;;;1.30;;
18146;SDS011;9199;48.832;9.182;2023-09-19T05:07:44;2.80;;;1.35;;
18146;SDS011;9199;48.832;9.182;2023-09-19T05:10:12;4.03;;;1.40;;
18146;SDS011;9199;48.832;9.182;2023-09-19T05:12:39;5.00;;;1.55;;
18146;SDS011;9199;48.832;9.182;2023-09-19T05:15:08;6.18;;;1.75;;
18146;SDS011;9199;48.832;9.182;2023-09-19T05:17:35;3.97;;;1.70;;
18146;SDS011;9199;48.832;9.182;2023-09-19T05:20:04;3.60;;;1.30;;
18146;SDS011;9199;48.832;9.182;2023-09-19T05:22:40;3.65;;;1.30;;
18146;SDS011;9199;48.832;9.182;2023-09-19T05:25:08;3.30;;;1.30;;
18146;SDS011;9199;48.832;9.182;2023-09-19T05:27:37;3.42;;;1.38;;
18146;SDS011;9199;48.832;9.182;2023-09-19T05:30:04;4.57;;;1.57;;
18146;SDS011;9199;48.832;9.182;2023-09-19T05:32:32;4.97;;;1.52;;
18146;SDS011;9199;48.832;9.182;2023-09-19T05:34:59;4.25;;;1.30;;
18146;SDS011;9199;48.832;9.182;2023-09-19T05:37:26;5.60;;;1.40;;
18146;SDS011;9199;48.832;9.182;2023-09-19T05:39:53;3.78;;;1.40;;
18146;SDS011;9199;48.832;9.182;2023-09-19T05:42:19;6.10;;;1.90;;
18146;SDS011;9199;48.832;9.182;2023-09-19T05:44:47;3.97;;;1.50;;
18146;SDS011;9199;48.832;9.182;2023-09-19T05:47:14;4.53;;;1.50;;
18146;SDS011;9199;48.832;9.182;2023-09-19T05:49:41;4.72;;;1.60;;
18146;SDS011;9199;48.832;9.182;2023-09-19T05:52:09;3.92;;;1.60;;
18146;SDS011;9199;48.832;9.182;2023-09-19T05:54:35;3.60;;;1.43;;
18146;SDS011;9199;48.832;9.182;2023-09-19T05:57:02;4.30;;;1.40;;
18146;SDS011;9199;48.832;9.182;2023-09-19T05:59:29;3.85;;;1.80;;
18146;SDS011;9199;48.832;9.182;2023-09-19T06:01:57;6.80;;;1.80;;
18146;SDS011;9199;48.832;9.182;2023-09-19T06:04:24;3.72;;;1.55;;
18146;SDS011;9199;48.832;9.182;2023-09-19T06:06:51;7.27;;;2.00;;
18146;SDS011;9199;48.832;9.182;2023-09-19T06:09:18;6.20;;;1.80;;
18146;SDS011;9199;48.832;9.182;2023-09-19T06:11:48;5.53;;;1.70;;
18146;SDS011;9199;48.832;9.182;2023-09-19T06:14:14;6.63;;;1.90;;
18146;SDS011;9199;48.832;9.182;2023-09-19T06:16:43;5.25;;;1.98;;
18146;SDS011;9199;48.832;9.182;2023-09-19T06:19:11;4.87;;;1.70;;
18146;SDS011;9199;48.832;9.182;2023-09-19T06:21:38;4.47;;;1.77;;
18146;SDS011;9199;48.832;9.182;2023-09-19T06:24:05;6.22;;;2.08;;
18146;SDS011;9199;48.832;9.182;2023-09-19T06:26:32;5.28;;;1.85;;
18146;SDS011;9199;48.832;9.182;2023-09-19T06:28:59;6.68;;;1.95;;
18146;SDS011;9199;48.832;9.182;2023-09-19T06:31:26;4.90;;;1.80;;
18146;SDS011;9199;48.832;9.182;2023-09-19T06:33:52;5.32;;;2.03;;
18146;SDS011;9199;48.832;9.182;2023-09-19T06:36:20;6.88;;;1.90;;
18146;SDS011;9199;48.832;9.182;2023-09-19T06:38:47;5.07;;;1.52;;
18146;SDS011;9199;48.832;9.182;2023-09-19T06:41:16;5.32;;;1.80;;
18146;SDS011;9199;48.832;9.182;2023-09-19T06:43:43;5.37;;;2.00;;
18146;SDS011;9199;48.832;9.182;2023-09-19T06:46:10;4.05;;;1.88;;
18146;SDS011;9199;48.832;9.182;2023-09-19T06:48:37;4.97;;;1.77;;
18146;SDS011;9199;48.832;9.182;2023-09-19T06:51:04;4.75;;;1.80;;
18146;SDS011;9199;48.832;9.182;2023-09-19T06:53:32;7.10;;;1.90;;
18146;SDS011;9199;48.832;9.182;2023-09-19T06:56:00;4.50;;;1.63;;
18146;SDS011;9199;48.832;9.182;2023-09-19T06:58:27;4.95;;;1.80;;
18146;SDS011;9199;48.832;9.182;2023-09-19T07:00:54;3.75;;;1.70;;
18146;SDS011;9199;48.832;9.182;2023-09-19T07:03:21;5.43;;;1.70;;
18146;SDS011;9199;48.832;9.182;2023-09-19T07:05:51;6.38;;;2.00;;
18146;SDS011;9199;48.832;9.182;2023-09-19T07:08:21;4.07;;;1.50;;
18146;SDS011;9199;48.832;9.182;2023-09-19T07:10:49;4.28;;;1.60;;
18146;SDS011;9199;48.832;9.182;2023-09-19T07:13:17;4.03;;;1.50;;
18146;SDS011;9199;48.832;9.182;2023-09-19T07:15:44;4.80;;;1.70;;
18146;SDS011;9199;48.832;9.182;2023-09-19T07:18:12;4.13;;;1.70;;
18146;SDS011;9199;48.832;9.182;2023-09-19T07:20:41;4.63;;;1.53;;
18146;SDS011;9199;48.832;9.182;2023-09-19T07:23:13;8.15;;;1.98;;
18146;SDS011;9199;48.832;9.182;2023-09-19T07:25:40;5.00;;;1.67;;
18146;SDS011;9199;48.832;9.182;2023-09-19T07:28:09;5.22;;;1.90;;
18146;SDS011;9199;48.832;9.182;2023-09-19T07:30:36;4.68;;;1.40;;
18146;SDS011;9199;48.832;9.182;2023-09-19T07:33:04;4.13;;;1.20;;
18146;SDS011;9199;48.832;9.182;2023-09-19T07:35:31;4.88;;;1.70;;
18146;SDS011;9199;48.832;9.182;2023-09-19T07:37:58;5.05;;;1.55;;
18146;SDS011;9199;48.832;9.182;2023-09-19T07:40:26;6.30;;;1.73;;
18146;SDS011;9199;48.832;9.182;2023-09-19T07:42:53;6.53;;;2.15;;
18146;SDS011;9199;48.832;9.182;2023-09-19T07:45:22;4.63;;;1.70;;
18146;SDS011;9199;48.832;9.182;2023-09-19T07:47:50;6.47;;;1.90;;
18146;SDS011;9199;48.832;9.182;2023-09-19T07:50:17;4.15;;;1.50;;
18146;SDS011;9199;48.832;9.182;2023-09-19T07:52:45;4.05;;;1.40;;
18146;SDS011;9199;48.832;9.182;2023-09-19T07:55:12;3.92;;;1.40;;
18146;SDS011;9199;48.832;9.182;2023-09-19T07:57:41;4.23;;;1.13;;
18146;SDS011;9199;48.832;9.182;2023-09-19T08:00:09;5.43;;;1.55;;
18146;SDS011;9199;48.832;9.182;2023-09-19T08:02:38;4.05;;;1.30;;
18146;SDS011;9199;48.832;9.182;2023-09-19T08:05:06;4.65;;;1.20;;
18146;SDS011;9199;48.832;9.182;2023-09-19T08:07:35;5.82;;;1.33;;
18146;SDS011;9199;48.832;9.182;2023-09-19T08:10:02;5.23;;;1.50;;
18146;SDS011;9199;48.832;9.182;2023-09-19T08:12:29;3.92;;;1.40;;
18146;SDS011;9199;48.832;9.182;2023-09-19T08:14:57;5.95;;;1.80;;
18146;SDS011;9199;48.832;9.182;2023-09-19T08:17:24;4.30;;;1.40;;
18146;SDS011;9199;48.832;9.182;2023-09-19T08:19:52;6.00;;;1.40;;
18146;SDS011;9199;48.832;9.182;2023-09-19T08:22:22;3.87;;;1.20;;
18146;SDS011;9199;48.832;9.182;2023-09-19T08:24:49;5.72;;;1.50;;
18146;SDS011;9199;48.832;9.182;2023-09-19T08:27:16;4.45;;;1.30;;
18146;SDS011;9199;48.832;9.182;2023-09-19T08:29:43;7.43;;;1.52;;
18146;SDS011;9199;48.832;9.182;2023-09-19T08:32:11;4.03;;;1.50;;
18146;SDS011;9199;48.832;9.182;2023-09-19T08:34:38;5.03;;;1.30;;
18146;SDS011;9199;48.832;9.182;2023-09-19T08:37:06;4.05;;;1.20;;
18146;SDS011;9199;48.832;9.182;2023-09-19T08:39:33;5.53;;;1.30;;
18146;SDS011;9199;48.832;9.182;2023-09-19T08:42:02;5.00;;;1.40;;
18146;SDS011;9199;48.832;9.182;2023-09-19T08:44:29;3.60;;;1.30;;
18146;SDS011;9199;48.832;9.182;2023-09-19T08:46:59;4.40;;;1.33;;
18146;SDS011;9199;48.832;9.182;2023-09-19T08:49:33;3.35;;;1.20;;
18146;SDS011;9199;48.832;9.182;2023-09-19T08:52:09;4.47;;;1.20;;
18146;SDS011;9199;48.832;9.182;2023-09-19T08:54:42;4.90;;;1.17;;
18146;SDS011;9199;48.832;9.182;2023-09-19T08:57:11;3.80;;;1.20;;
18146;SDS011;9199;48.832;9.182;2023-09-19T08:59:46;3.40;;;1.20;;
18146;SDS011;9199;48.832;9.182;2023-09-19T09:02:14;3.53;;;1.17;;
18146;SDS011;9199;48.832;9.182;2023-09-19T09:04:44;3.90;;;1.02;;
18146;SDS011;9199;48.832;9.182;2023-09-19T09:07:14;3.80;;;1.27;;
18146;SDS011;9199;48.832;9.182;2023-09-19T09:09:44;4.18;;;1.40;;
18146;SDS011;9199;48.832;9.182;2023-09-19T09:12:12;4.73;;;1.10;;
18146;SDS011;9199;48.832;9.182;2023-09-19T09:14:40;4.07;;;1.13;;
18146;SDS011;9199;48.832;9.182;2023-09-19T09:17:10;3.17;;;1.20;;
18146;SDS011;9199;48.832;9.182;2023-09-19T09:19:37;3.30;;;1.15;;
18146;SDS011;9199;48.832;9.182;2023-09-19T09:22:07;3.90;;;1.10;;
18146;SDS011;9199;48.832;9.182;2023-09-19T09:24:36;3.17;;;1.10;;
18146;SDS011;9199;48.832;9.182;2023-09-19T09:27:05;3.20;;;1.05;;
18146;SDS011;9199;48.832;9.182;2023-09-19T09:29:42;2.95;;;1.13;;
18146;SDS011;9199;48.832;9.182;2023-09-19T09:32:18;3.80;;;1.20;;
18146;SDS011;9199;48.832;9.182;2023-09-19T09:34:47;4.55;;;1.05;;
18146;SDS011;9199;48.832;9.182;2023-09-19T09:37:16;4.13;;;1.20;;
18146;SDS011;9199;48.832;9.182;2023-09-19T09:39:55;3.53;;;1.20;;
18146;SDS011;9199;48.832;9.182;2023-09-19T09:42:28;3.72;;;1.10;;
18146;SDS011;9199;48.832;9.182;2023-09-19T09:45:11;3.45;;;1.30;;
18146;SDS011;9199;48.832;9.182;2023-09-19T09:47:43;3.10;;;1.20;;
18146;SDS011;9199;48.832;9.182;2023-09-19T09:50:27;3.43;;;1.10;;
18146;SDS011;9199;48.832;9.182;2023-09-19T09:53:02;4.40;;;1.15;;
18146;SDS011;9199;48.832;9.182;2023-09-19T09:55:41;3.60;;;1.17;;
18146;SDS011;9199;48.832;9.182;2023-09-19T09:58:24;3.47;;;1.17;;
18146;SDS011;9199;48.832;9.182;2023-09-19T10:00:54;3.15;;;1.40;;
18146;SDS011;9199;48.832;9.182;2023-09-19T10:03:31;3.73;;;1.17;;
18146;SDS011;9199;48.832;9.182;2023-09-19T10:06:03;3.90;;;1.50;;
18146;SDS011;9199;48.832;9.182;2023-09-19T10:09:03;3.40;;;0.98;;
18146;SDS011;9199;48.832;9.182;2023-09-19T10:11:40;6.88;;;1.10;;
18146;SDS011;9199;48.832;9.182;2023-09-19T10:14:09;2.95;;;1.00;;
18146;SDS011;9199;48.832;9.182;2023-09-19T10:16:39;5.00;;;1.20;;
18146;SDS011;9199;48.832;9.182;2023-09-19T10:19:11;4.70;;;1.10;;
18146;SDS011;9199;48.832;9.182;2023-09-19T10:21:47;3.90;;;1.20;;
18146;SDS011;9199;48.832;9.182;2023-09-19T10:24:16;4.97;;;1.20;;
18146;SDS011;9199;48.832;9.182;2023-09-19T10:26:45;8.50;;;1.30;;
18146;SDS011;9199;48.832;9.182;2023-09-19T10:29:15;3.00;;;1.10;;
18146;SDS011;9199;48.832;9.182;2023-09-19T10:31:44;3.65;;;1.10;;
18146;SDS011;9199;48.832;9.182;2023-09-19T10:34:15;4.25;;;1.13;;
18146;SDS011;9199;48.832;9.182;2023-09-19T10:36:44;4.90;;;1.20;;
18146;SDS011;9199;48.832;9.182;2023-09-19T10:39:13;3.92;;;1.10;;
18146;SDS011;9199;48.832;9.182;2023-09-19T10:41:45;4.07;;;1.30;;
18146;SDS011;9199;48.832;9.182;2023-09-19T10:44:19;3.08;;;1.17;;
18146;SDS011;9199;48.832;9.182;2023-09-19T10:46:50;5.47;;;1.20;;
18146;SDS011;9199;48.832;9.182;2023-09-19T10:49:18;3.85;;;1.30;;
18146;SDS011;9199;48.832;9.182;2023-09-19T10:51:45;2.67;;;1.10;;
18146;SDS011;9199;48.832;9.182;2023-09-19T10:54:15;2.50;;;1.00;;
18146;SDS011;9199;48.832;9.182;2023-09-19T10:56:47;3.58;;;1.00;;
18146;SDS011;9199;48.832;9.182;2023-09-19T10:59:17;2.92;;;1.00;;
18146;SDS011;9199;48.832;9.182;2023-09-19T11:01:46;3.83;;;1.10;;
18146;SDS011;9199;48.832;9.182;2023-09-19T11:04:26;3.58;;;1.10;;
18146;SDS011;9199;48.832;9.182;2023-09-19T11:07:01;3.60;;;1.20;;
18146;SDS011;9199;48.832;9.182;2023-09-19T11:09:48;4.18;;;1.20;;
18146;SDS011;9199;48.832;9.182;2023-09-19T11:18:52;3.08;;;1.00;;
18146;SDS011;9199;48.832;9.182;2023-09-19T11:27:14;3.83;;;1.10;;
18146;SDS011;9199;48.832;9.182;2023-09-19T11:29:44;3.47;;;1.02;;
18146;SDS011;9199;48.832;9.182;2023-09-19T11:32:12;4.78;;;1.10;;
18146;SDS011;9199;48.832;9.182;2023-09-19T11:34:41;4.50;;;1.20;;
18146;SDS011;9199;48.832;9.182;2023-09-19T11:40:44;3.55;;;1.13;;
18146;SDS011;9199;48.832;9.182;2023-09-19T11:43:29;2.72;;;1.10;;
18146;SDS011;9199;48.832;9.182;2023-09-19T11:46:09;2.97;;;1.10;;
18146;SDS011;9199;48.832;9.182;2023-09-19T11:48:37;2.67;;;0.90;;
18146;SDS011;9199;48.832;9.182;2023-09-19T11:51:12;3.92;;;1.23;;
18146;SDS011;9199;48.832;9.182;2023-09-19T11:53:52;4.70;;;0.93;;
18146;SDS011;9199;48.832;9.182;2023-09-19T11:56:20;5.57;;;0.95;;
18146;SDS011;9199;48.832;9.182;2023-09-19T11:58:49;2.83;;;0.80;;
18146;SDS011;9199;48.832;9.182;2023-09-19T12:01:21;3.40;;;1.10;;
18146;SDS011;9199;48.832;9.182;2023-09-19T12:03:52;4.03;;;0.90;;
18146;SDS011;9199;48.832;9.182;2023-09-19T12:06:22;3.10;;;0.90;;
18146;SDS011;9199;48.832;9.182;2023-09-19T12:08:49;3.47;;;1.00;;
18146;SDS011;9199;48.832;9.182;2023-09-19T12:11:19;3.50;;;1.10;;
18146;SDS011;9199;48.832;9.182;2023-09-19T12:13:48;2.87;;;0.97;;
18146;SDS011;9199;48.832;9.182;2023-09-19T12:16:16;6.57;;;1.10;;
18146;SDS011;9199;48.832;9.182;2023-09-19T12:18:48;3.80;;;1.00;;
18146;SDS011;9199;48.832;9.182;2023-09-19T12:21:28;3.28;;;1.20;;
18146;SDS011;9199;48.832;9.182;2023-09-19T12:23:57;3.45;;;1.10;;
18146;SDS011;9199;48.832;9.182;2023-09-19T12:26:25;3.27;;;1.07;;
18146;SDS011;9199;48.832;9.182;2023-09-19T12:28:54;3.17;;;1.00;;
18146;SDS011;9199;48.832;9.182;2023-09-19T12:31:21;3.58;;;0.98;;
18146;SDS011;9199;48.832;9.182;2023-09-19T12:33:53;3.53;;;1.10;;
18146;SDS011;9199;48.832;9.182;2023-09-19T12:36:21;3.20;;;0.90;;
18146;SDS011;9199;48.832;9.182;2023-09-19T12:38:54;3.73;;;1.00;;
18146;SDS011;9199;48.832;9.182;2023-09-19T12:41:21;3.22;;;1.10;;
18146;SDS011;9199;48.832;9.182;2023-09-19T12:43:48;3.05;;;1.20;;
18146;SDS011;9199;48.832;9.182;2023-09-19T12:46:19;4.15;;;0.90;;
18146;SDS011;9199;48.832;9.182;2023-09-19T12:48:49;3.63;;;1.10;;
18146;SDS011;9199;48.832;9.182;2023-09-19T12:51:35;5.33;;;1.10;;
18146;SDS011;9199;48.832;9.182;2023-09-19T12:54:02;3.65;;;0.90;;
18146;SDS011;9199;48.832;9.182;2023-09-19T12:56:30;3.20;;;0.90;;
18146;SDS011;9199;48.832;9.182;2023-09-19T12:59:06;3.83;;;1.25;;
18146;SDS011;9199;48.832;9.182;2023-09-19T13:01:37;2.50;;;1.00;;
18146;SDS011;9199;48.832;9.182;2023-09-19T13:04:14;3.83;;;1.10;;
18146;SDS011;9199;48.832;9.182;2023-09-19T13:06:47;3.33;;;1.00;;
18146;SDS011;9199;48.832;9.182;2023-09-19T13:09:15;4.30;;;1.15;;
18146;SDS011;9199;48.832;9.182;2023-09-19T13:11:43;4.25;;;1.25;;
18146;SDS011;9199;48.832;9.182;2023-09-19T13:14:13;3.70;;;1.00;;
18146;SDS011;9199;48.832;9.182;2023-09-19T13:16:54;2.63;;;0.90;;
18146;SDS011;9199;48.832;9.182;2023-09-19T13:19:37;6.05;;;1.15;;
18146;SDS011;9199;48.832;9.182;2023-09-19T13:25:05;3.80;;;1.10;;
18146;SDS011;9199;48.832;9.182;2023-09-19T13:27:38;3.30;;;0.90;;
18146;SDS011;9199;48.832;9.182;2023-09-19T13:30:06;3.40;;;1.27;;
18146;SDS011;9199;48.832;9.182;2023-09-19T13:32:34;2.13;;;1.00;;
18146;SDS011;9199;48.832;9.182;2023-09-19T13:35:00;2.97;;;1.00;;
18146;SDS011;9199;48.832;9.182;2023-09-19T13:37:27;3.47;;;1.00;;
18146;SDS011;9199;48.832;9.182;2023-09-19T13:39:56;2.83;;;1.20;;
18146;SDS011;9199;48.832;9.182;2023-09-19T13:42:24;3.47;;;1.40;;
18146;SDS011;9199;48.832;9.182;2023-09-19T13:44:54;3.95;;;1.50;;
18146;SDS011;9199;48.832;9.182;2023-09-19T13:47:22;2.60;;;1.13;;
18146;SDS011;9199;48.832;9.182;2023-09-19T13:49:51;3.00;;;1.15;;
18146;SDS011;9199;48.832;9.182;2023-09-19T13:52:18;2.70;;;1.20;;
18146;SDS011;9199;48.832;9.182;2023-09-19T13:54:46;4.20;;;1.43;;
18146;SDS011;9199;48.832;9.182;2023-09-19T13:57:15;2.85;;;1.20;;
18146;SDS011;9199;48.832;9.182;2023-09-19T13:59:42;3.70;;;1.05;;
18146;SDS011;9199;48.832;9.182;2023-09-19T14:02:09;3.13;;;1.30;;
18146;SDS011;9199;48.832;9.182;2023-09-19T14:04:35;2.53;;;1.20;;
18146;SDS011;9199;48.832;9.182;2023-09-19T14:07:02;3.43;;;1.33;;
18146;SDS011;9199;48.832;9.182;2023-09-19T14:09:29;3.67;;;1.40;;
18146;SDS011;9199;48.832;9.182;2023-09-19T14:11:56;3.78;;;1.40;;
18146;SDS011;9199;48.832;9.182;2023-09-19T14:14:24;4.22;;;1.30;;
18146;SDS011;9199;48.832;9.182;2023-09-19T14:16:51;4.22;;;1.40;;
18146;SDS011;9199;48.832;9.182;2023-09-19T14:19:18;3.27;;;1.37;;
18146;SDS011;9199;48.832;9.182;2023-09-19T14:21:45;4.78;;;1.63;;
18146;SDS011;9199;48.832;9.182;2023-09-19T14:24:16;2.92;;;1.20;;
18146;SDS011;9199;48.832;9.182;2023-09-19T14:26:43;3.33;;;1.15;;
18146;SDS011;9199;48.832;9.182;2023-09-19T14:29:11;3.83;;;1.45;;
18146;SDS011;9199;48.832;9.182;2023-09-19T14:31:39;3.30;;;1.30;;
18146;SDS011;9199;48.832;9.182;2023-09-19T14:34:06;3.97;;;1.30;;
18146;SDS011;9199;48.832;9.182;2023-09-19T14:36:35;4.00;;;1.30;;
18146;SDS011;9199;48.832;9.182;2023-09-19T14:39:03;3.10;;;1.48;;
18146;SDS011;9199;48.832;9.182;2023-09-19T14:41:31;3.97;;;1.20;;
18146;SDS011;9199;48.832;9.182;2023-09-19T14:43:58;3.57;;;1.40;;
18146;SDS011;9199;48.832;9.182;2023-09-19T14:46:25;3.50;;;1.40;;
18146;SDS011;9199;48.832;9.182;2023-09-19T14:48:53;3.33;;;1.30;;
18146;SDS011;9199;48.832;9.182;2023-09-19T14:51:24;3.45;;;1.30;;
18146;SDS011;9199;48.832;9.182;2023-09-19T14:53:51;3.03;;;1.20;;
18146;SDS011;9199;48.832;9.182;2023-09-19T14:56:19;3.17;;;1.30;;
18146;SDS011;9199;48.832;9.182;2023-09-19T14:58:48;3.78;;;1.20;;
18146;SDS011;9199;48.832;9.182;2023-09-19T15:01:15;4.07;;;1.33;;
18146;SDS011;9199;48.832;9.182;2023-09-19T15:03:42;3.42;;;1.35;;
18146;SDS011;9199;48.832;9.182;2023-09-19T15:06:12;3.53;;;1.17;;
18146;SDS011;9199;48.832;9.182;2023-09-19T15:08:42;4.03;;;1.37;;
18146;SDS011;9199;48.832;9.182;2023-09-19T15:11:12;4.78;;;1.50;;
18146;SDS011;9199;48.832;9.182;2023-09-19T15:13:41;2.88;;;1.40;;
18146;SDS011;9199;48.832;9.182;2023-09-19T15:16:08;4.38;;;1.05;;
18146;SDS011;9199;48.832;9.182;2023-09-19T15:18:35;3.17;;;1.10;;
18146;SDS011;9199;48.832;9.182;2023-09-19T15:21:04;2.47;;;1.10;;
18146;SDS011;9199;48.832;9.182;2023-09-19T15:23:33;2.95;;;1.00;;
18146;SDS011;9199;48.832;9.182;2023-09-19T15:26:01;4.20;;;1.30;;
18146;SDS011;9199;48.832;9.182;2023-09-19T15:28:28;4.00;;;1.20;;
18146;SDS011;9199;48.832;9.182;2023-09-19T15:30:57;2.85;;;1.17;;
18146;SDS011;9199;48.832;9.182;2023-09-19T15:33:25;2.57;;;0.90;;